sensor_id;sensor_type;location;lat;lon;timestamp;temperature;humidity
32728;DHT22;55292;51.844;19.246;2023-09-30T00:01:42;16.70;99.90
32728;DHT22;55292;51.844;19.246;2023-09-30T00:06:46;16.70;99.90
32728;DHT22;55292;51.844;19.246;2023-09-30T00:11:49;16.70;99.90
32728;DHT22;55292;51.844;19.246;2023-09-30T00:16:51;16.50;99.90
32728;DHT22;55292;51.844;19.246;2023-09-30T00:21:54;16.30;99.90
32728;DHT22;55292;51.844;19.246;2023-09-30T00:26:57;16.10;99.90
32728;DHT22;55292;51.844;19.246;2023-09-30T00:32:00;16.10;99.90
32728;DHT22;55292;51.844;19.246;2023-09-30T00:37:03;16.30;99.90
32728;DHT22;55292;51.844;19.246;2023-09-30T00:42:06;16.30;99.90
32728;DHT22;55292;51.844;19.246;2023-09-30T00:47:10;16.40;99.90
32728;DHT22;55292;51.844;19.246;2023-09-30T00:52:13;16.30;99.90
32728;DHT22;55292;51.844;19.246;2023-09-30T00:57:17;16.30;99.90
32728;DHT22;55292;51.844;19.246;2023-09-30T01:02:23;16.30;99.90
32728;DHT22;55292;51.844;19.246;2023-09-30T01:07:26;16.30;99.90
32728;DHT22;55292;51.844;19.246;2023-09-30T01:12:28;16.20;99.90
32728;DHT22;55292;51.844;19.246;2023-09-30T01:17:31;16.20;99.90
32728;DHT22;55292;51.844;19.246;2023-09-30T01:22:35;16.20;99.90
32728;DHT22;55292;51.844;19.246;2023-09-30T01:27:38;16.20;99.90
32728;DHT22;55292;51.844;19.246;2023-09-30T01:32:40;16.30;99.90
32728;DHT22;55292;51.844;19.246;2023-09-30T01:37:45;16.20;99.90
32728;DHT22;55292;51.844;19.246;2023-09-30T01:42:48;16.20;99.90
32728;DHT22;55292;51.844;19.246;2023-09-30T01:47:51;16.20;99.90
32728;DHT22;55292;51.844;19.246;2023-09-30T01:52:54;13.90;99.90
32728;DHT22;55292;51.844;19.246;2023-09-30T01:57:57;16.00;99.90
32728;DHT22;55292;51.844;19.246;2023-09-30T02:03:00;16.00;99.90
32728;DHT22;55292;51.844;19.246;2023-09-30T02:08:03;16.00;99.90
32728;DHT22;55292;51.844;19.246;2023-09-30T02:13:07;15.90;99.90
32728;DHT22;55292;51.844;19.246;2023-09-30T02:18:10;15.90;99.90
32728;DHT22;55292;51.844;19.246;2023-09-30T02:23:13;15.80;99.90
32728;DHT22;55292;51.844;19.246;2023-09-30T02:28:15;15.70;99.90
32728;DHT22;55292;51.844;19.246;2023-09-30T02:33:18;15.80;99.90
32728;DHT22;55292;51.844;19.246;2023-09-30T02:38:21;15.70;99.90
32728;DHT22;55292;51.844;19.246;2023-09-30T02:43:23;15.60;99.90
32728;DHT22;55292;51.844;19.246;2023-09-30T02:48:26;15.60;99.90
32728;DHT22;55292;51.844;19.246;2023-09-30T02:53:29;15.70;99.90
32728;DHT22;55292;51.844;19.246;2023-09-30T02:58:32;15.60;99.90
32728;DHT22;55292;51.844;19.246;2023-09-30T03:03:35;15.50;99.90
32728;DHT22;55292;51.844;19.246;2023-09-30T03:08:39;15.50;99.90
32728;DHT22;55292;51.844;19.246;2023-09-30T03:13:43;15.50;99.90
32728;DHT22;55292;51.844;19.246;2023-09-30T03:18:46;15.50;99.90
32728;DHT22;55292;51.844;19.246;2023-09-30T03:23:48;15.40;99.90
32728;DHT22;55292;51.844;19.246;2023-09-30T03:28:51;15.50;99.90
32728;DHT22;55292;51.844;19.246;2023-09-30T03:33:54;15.50;99.90
32728;DHT22;55292;51.844;19.246;2023-09-30T03:38:58;15.50;99.90
32728;DHT22;55292;51.844;19.246;2023-09-30T03:44:02;15.40;99.90
32728;DHT22;55292;51.844;19.246;2023-09-30T03:49:05;15.40;99.90
32728;DHT22;55292;51.844;19.246;2023-09-30T03:54:11;15.40;99.90
32728;DHT22;55292;51.844;19.246;2023-09-30T03:59:13;15.40;99.90
32728;DHT22;55292;51.844;19.246;2023-09-30T04:04:16;15.40;99.90
32728;DHT22;55292;51.844;19.246;2023-09-30T04:09:19;15.40;99.90
32728;DHT22;55292;51.844;19.246;2023-09-30T04:14:22;15.40;99.90
32728;DHT22;55292;51.844;19.246;2023-09-30T04:19:25;15.40;99.90
32728;DHT22;55292;51.844;19.246;2023-09-30T04:24:27;15.40;99.90
32728;DHT22;55292;51.844;19.246;2023-09-30T04:29:31;15.40;99.90
32728;DHT22;55292;51.844;19.246;2023-09-30T04:34:34;15.50;99.90
32728;DHT22;55292;51.844;19.246;2023-09-30T04:39:37;15.60;99.90
32728;DHT22;55292;51.844;19.246;2023-09-30T04:44:41;15.70;99.90
32728;DHT22;55292;51.844;19.246;2023-09-30T04:49:44;15.70;99.90
32728;DHT22;55292;51.844;19.246;2023-09-30T04:54:46;15.80;99.90
32728;DHT22;55292;51.844;19.246;2023-09-30T04:59:49;15.70;99.90
32728;DHT22;55292;51.844;19.246;2023-09-30T05:04:53;15.70;99.90
32728;DHT22;55292;51.844;19.246;2023-09-30T05:09:56;15.70;99.90
32728;DHT22;55292;51.844;19.246;2023-09-30T05:14:59;15.70;99.90
32728;DHT22;55292;51.844;19.246;2023-09-30T05:20:02;15.80;99.90
32728;DHT22;55292;51.844;19.246;2023-09-30T05:25:09;15.80;99.90
32728;DHT22;55292;51.844;19.246;2023-09-30T05:30:12;15.80;99.90
32728;DHT22;55292;51.844;19.246;2023-09-30T05:35:18;16.00;99.90
32728;DHT22;55292;51.844;19.246;2023-09-30T05:40:21;16.20;99.90
32728;DHT22;55292;51.844;19.246;2023-09-30T05:45:33;16.40;99.90
32728;DHT22;55292;51.844;19.246;2023-09-30T05:50:37;16.60;99.90
32728;DHT22;55292;51.844;19.246;2023-09-30T05:55:44;16.70;99.90
32728;DHT22;55292;51.844;19.246;2023-09-30T06:00:48;16.80;99.90
32728;DHT22;55292;51.844;19.246;2023-09-30T06:05:53;17.00;99.90
32728;DHT22;55292;51.844;19.246;2023-09-30T06:10:55;17.20;99.90
32728;DHT22;55292;51.844;19.246;2023-09-30T06:15:58;17.30;99.90
32728;DHT22;55292;51.844;19.246;2023-09-30T06:21:02;17.40;99.90
32728;DHT22;55292;51.844;19.246;2023-09-30T06:26:06;17.50;99.90
32728;DHT22;55292;51.844;19.246;2023-09-30T06:31:09;17.50;99.90
32728;DHT22;55292;51.844;19.246;2023-09-30T06:36:13;17.40;99.90
32728;DHT22;55292;51.844;19.246;2023-09-30T06:41:19;17.40;99.90
32728;DHT22;55292;51.844;19.246;2023-09-30T06:46:22;17.30;99.90
32728;DHT22;55292;51.844;19.246;2023-09-30T06:51:26;17.30;99.90
32728;DHT22;55292;51.844;19.246;2023-09-30T06:56:29;17.40;99.90
32728;DHT22;55292;51.844;19.246;2023-09-30T07:01:32;17.50;99.90
32728;DHT22;55292;51.844;19.246;2023-09-30T07:06:34;17.60;99.90
32728;DHT22;55292;51.844;19.246;2023-09-30T07:11:37;17.60;99.90
32728;DHT22;55292;51.844;19.246;2023-09-30T07:16:40;17.50;99.90
32728;DHT22;55292;51.844;19.246;2023-09-30T07:21:43;17.60;99.90
32728;DHT22;55292;51.844;19.246;2023-09-30T07:26:46;18.00;99.90
32728;DHT22;55292;51.844;19.246;2023-09-30T07:31:49;18.80;99.90
32728;DHT22;55292;51.844;19.246;2023-09-30T07:36:53;18.90;99.90
32728;DHT22;55292;51.844;19.246;2023-09-30T07:41:56;18.70;99.90
32728;DHT22;55292;51.844;19.246;2023-09-30T07:46:58;18.80;99.90
32728;DHT22;55292;51.844;19.246;2023-09-30T07:52:01;18.70;99.90
32728;DHT22;55292;51.844;19.246;2023-09-30T07:57:04;18.70;99.90
32728;DHT22;55292;51.844;19.246;2023-09-30T08:02:07;18.60;99.90
32728;DHT22;55292;51.844;19.246;2023-09-30T08:07:11;18.50;99.90
32728;DHT22;55292;51.844;19.246;2023-09-30T08:12:13;18.50;99.90
32728;DHT22;55292;51.844;19.246;2023-09-30T08:17:16;18.30;99.90
32728;DHT22;55292;51.844;19.246;2023-09-30T08:22:20;18.50;99.90
32728;DHT22;55292;51.844;19.246;2023-09-30T08:27:23;18.40;99.90
32728;DHT22;55292;51.844;19.246;2023-09-30T08:32:27;18.50;99.90
32728;DHT22;55292;51.844;19.246;2023-09-30T08:37:30;18.20;99.90
32728;DHT22;55292;51.844;19.246;2023-09-30T08:42:33;18.20;99.90
32728;DHT22;55292;51.844;19.246;2023-09-30T08:47:37;17.80;99.90
32728;DHT22;55292;51.844;19.246;2023-09-30T08:52:41;17.30;99.90
32728;DHT22;55292;51.844;19.246;2023-09-30T08:57:46;17.10;99.90
32728;DHT22;55292;51.844;19.246;2023-09-30T09:02:50;18.90;99.90
32728;DHT22;55292;51.844;19.246;2023-09-30T09:07:53;17.20;99.90
32728;DHT22;55292;51.844;19.246;2023-09-30T09:12:57;17.30;99.90
32728;DHT22;55292;51.844;19.246;2023-09-30T09:18:00;17.50;99.90
32728;DHT22;55292;51.844;19.246;2023-09-30T09:23:06;17.50;99.90
32728;DHT22;55292;51.844;19.246;2023-09-30T09:28:09;17.60;99.90
32728;DHT22;55292;51.844;19.246;2023-09-30T09:33:12;17.70;99.90
32728;DHT22;55292;51.844;19.246;2023-09-30T09:38:15;17.90;99.90
32728;DHT22;55292;51.844;19.246;2023-09-30T09:43:17;17.70;99.90
32728;DHT22;55292;51.844;19.246;2023-09-30T09:48:20;17.90;99.90
32728;DHT22;55292;51.844;19.246;2023-09-30T09:53:24;18.20;99.90
32728;DHT22;55292;51.844;19.246;2023-09-30T09:58:32;18.10;99.90
32728;DHT22;55292;51.844;19.246;2023-09-30T10:03:38;17.60;99.90
32728;DHT22;55292;51.844;19.246;2023-09-30T10:08:43;17.90;99.90
32728;DHT22;55292;51.844;19.246;2023-09-30T10:13:55;18.10;99.90
32728;DHT22;55292;51.844;19.246;2023-09-30T10:19:23;17.90;99.90
32728;DHT22;55292;51.844;19.246;2023-09-30T10:29:42;17.60;99.90
32728;DHT22;55292;51.844;19.246;2023-09-30T10:34:49;17.70;99.90
32728;DHT22;55292;51.844;19.246;2023-09-30T10:39:58;17.90;99.90
32728;DHT22;55292;51.844;19.246;2023-09-30T10:45:04;18.30;99.90
32728;DHT22;55292;51.844;19.246;2023-09-30T10:50:49;18.10;99.90
32728;DHT22;55292;51.844;19.246;2023-09-30T10:55:57;18.20;99.90
32728;DHT22;55292;51.844;19.246;2023-09-30T11:01:01;18.10;99.90
32728;DHT22;55292;51.844;19.246;2023-09-30T11:06:07;18.20;99.90
32728;DHT22;55292;51.844;19.246;2023-09-30T11:11:14;18.40;99.90
32728;DHT22;55292;51.844;19.246;2023-09-30T11:16:17;18.60;99.90
32728;DHT22;55292;51.844;19.246;2023-09-30T11:21:21;18.40;99.90
32728;DHT22;55292;51.844;19.246;2023-09-30T11:26:31;18.40;99.90
32728;DHT22;55292;51.844;19.246;2023-09-30T11:31:37;18.10;99.90
32728;DHT22;55292;51.844;19.246;2023-09-30T11:36:51;18.10;99.90
32728;DHT22;55292;51.844;19.246;2023-09-30T11:41:54;17.80;99.90
32728;DHT22;55292;51.844;19.246;2023-09-30T11:47:01;17.70;99.90
32728;DHT22;55292;51.844;19.246;2023-09-30T11:52:11;18.10;99.90
32728;DHT22;55292;51.844;19.246;2023-09-30T11:57:15;18.10;99.90
32728;DHT22;55292;51.844;19.246;2023-09-30T12:02:19;18.10;99.90
32728;DHT22;55292;51.844;19.246;2023-09-30T12:07:22;18.40;99.90
32728;DHT22;55292;51.844;19.246;2023-09-30T12:12:25;18.60;99.90
32728;DHT22;55292;51.844;19.246;2023-09-30T12:17:28;18.80;99.90
32728;DHT22;55292;51.844;19.246;2023-09-30T12:22:30;18.70;99.90
32728;DHT22;55292;51.844;19.246;2023-09-30T12:27:33;18.40;99.90
32728;DHT22;55292;51.844;19.246;2023-09-30T12:32:36;18.80;99.90
32728;DHT22;55292;51.844;19.246;2023-09-30T12:37:42;18.80;99.90
32728;DHT22;55292;51.844;19.246;2023-09-30T12:42:48;18.70;99.90
32728;DHT22;55292;51.844;19.246;2023-09-30T12:47:51;18.60;99.90
32728;DHT22;55292;51.844;19.246;2023-09-30T12:52:55;18.50;99.90
32728;DHT22;55292;51.844;19.246;2023-09-30T12:57:57;18.40;99.90
32728;DHT22;55292;51.844;19.246;2023-09-30T13:03:02;18.30;99.90
32728;DHT22;55292;51.844;19.246;2023-09-30T13:08:05;18.40;99.90
32728;DHT22;55292;51.844;19.246;2023-09-30T13:13:08;18.90;99.90
32728;DHT22;55292;51.844;19.246;2023-09-30T13:18:11;19.10;99.90
32728;DHT22;55292;51.844;19.246;2023-09-30T13:23:13;19.00;99.90
32728;DHT22;55292;51.844;19.246;2023-09-30T13:28:16;19.20;99.90
32728;DHT22;55292;51.844;19.246;2023-09-30T13:33:20;18.80;99.90
32728;DHT22;55292;51.844;19.246;2023-09-30T13:38:23;18.80;99.90
32728;DHT22;55292;51.844;19.246;2023-09-30T13:43:26;18.40;99.90
32728;DHT22;55292;51.844;19.246;2023-09-30T13:48:29;18.40;99.90
32728;DHT22;55292;51.844;19.246;2023-09-30T13:53:32;18.30;99.90
32728;DHT22;55292;51.844;19.246;2023-09-30T13:58:34;18.20;99.90
32728;DHT22;55292;51.844;19.246;2023-09-30T14:03:37;18.20;99.90
32728;DHT22;55292;51.844;19.246;2023-09-30T14:08:43;18.20;99.90
32728;DHT22;55292;51.844;19.246;2023-09-30T14:13:46;18.40;99.90
32728;DHT22;55292;51.844;19.246;2023-09-30T14:18:49;18.40;99.90
32728;DHT22;55292;51.844;19.246;2023-09-30T14:23:53;18.30;99.90
32728;DHT22;55292;51.844;19.246;2023-09-30T14:28:56;18.20;99.90
32728;DHT22;55292;51.844;19.246;2023-09-30T14:34:00;17.80;99.90
32728;DHT22;55292;51.844;19.246;2023-09-30T14:39:03;17.50;99.90
32728;DHT22;55292;51.844;19.246;2023-09-30T14:44:16;17.30;99.90
32728;DHT22;55292;51.844;19.246;2023-09-30T14:49:19;17.20;99.90
32728;DHT22;55292;51.844;19.246;2023-09-30T14:54:22;17.10;99.90
32728;DHT22;55292;51.844;19.246;2023-09-30T14:59:25;16.90;99.90
32728;DHT22;55292;51.844;19.246;2023-09-30T15:04:28;16.70;99.90
32728;DHT22;55292;51.844;19.246;2023-09-30T15:09:31;16.50;99.90
32728;DHT22;55292;51.844;19.246;2023-09-30T15:14:34;16.40;99.90
32728;DHT22;55292;51.844;19.246;2023-09-30T15:19:37;16.20;99.90
32728;DHT22;55292;51.844;19.246;2023-09-30T15:24:39;16.20;99.90
32728;DHT22;55292;51.844;19.246;2023-09-30T15:29:42;16.30;99.90
32728;DHT22;55292;51.844;19.246;2023-09-30T15:34:46;16.40;99.90
32728;DHT22;55292;51.844;19.246;2023-09-30T15:39:48;16.50;99.90
32728;DHT22;55292;51.844;19.246;2023-09-30T15:44:52;16.50;99.90
32728;DHT22;55292;51.844;19.246;2023-09-30T15:49:58;16.30;99.90
32728;DHT22;55292;51.844;19.246;2023-09-30T15:55:01;16.10;99.90
32728;DHT22;55292;51.844;19.246;2023-09-30T16:00:04;15.70;99.90
32728;DHT22;55292;51.844;19.246;2023-09-30T16:05:08;15.50;99.90
32728;DHT22;55292;51.844;19.246;2023-09-30T16:10:12;15.50;99.90
32728;DHT22;55292;51.844;19.246;2023-09-30T16:15:14;15.40;99.90
32728;DHT22;55292;51.844;19.246;2023-09-30T16:20:17;15.40;99.90
32728;DHT22;55292;51.844;19.246;2023-09-30T16:25:26;15.20;99.90
32728;DHT22;55292;51.844;19.246;2023-09-30T16:30:29;14.90;99.90
32728;DHT22;55292;51.844;19.246;2023-09-30T16:35:32;14.60;99.90
32728;DHT22;55292;51.844;19.246;2023-09-30T16:40:35;14.40;99.90
32728;DHT22;55292;51.844;19.246;2023-09-30T16:45:38;14.10;99.90
32728;DHT22;55292;51.844;19.246;2023-09-30T16:50:44;13.70;99.90
32728;DHT22;55292;51.844;19.246;2023-09-30T16:55:47;13.40;99.90
32728;DHT22;55292;51.844;19.246;2023-09-30T17:00:50;12.70;99.90
32728;DHT22;55292;51.844;19.246;2023-09-30T17:05:53;12.70;99.90
32728;DHT22;55292;51.844;19.246;2023-09-30T17:10:56;12.40;99.90
32728;DHT22;55292;51.844;19.246;2023-09-30T17:15:58;12.10;99.90
32728;DHT22;55292;51.844;19.246;2023-09-30T17:21:01;11.90;99.90
32728;DHT22;55292;51.844;19.246;2023-09-30T17:26:04;11.70;99.90
32728;DHT22;55292;51.844;19.246;2023-09-30T17:31:07;11.30;99.90
32728;DHT22;55292;51.844;19.246;2023-09-30T17:36:15;11.10;99.90
32728;DHT22;55292;51.844;19.246;2023-09-30T17:41:17;10.90;99.90
32728;DHT22;55292;51.844;19.246;2023-09-30T17:46:20;10.70;99.90
32728;DHT22;55292;51.844;19.246;2023-09-30T17:51:23;10.70;99.90
32728;DHT22;55292;51.844;19.246;2023-09-30T17:56:26;10.40;99.90
32728;DHT22;55292;51.844;19.246;2023-09-30T18:01:29;10.00;99.90
32728;DHT22;55292;51.844;19.246;2023-09-30T18:11:36;9.60;99.90
32728;DHT22;55292;51.844;19.246;2023-09-30T18:16:39;9.50;99.90
32728;DHT22;55292;51.844;19.246;2023-09-30T18:21:42;9.30;99.90
32728;DHT22;55292;51.844;19.246;2023-09-30T18:26:45;9.10;99.90
32728;DHT22;55292;51.844;19.246;2023-09-30T18:46:58;8.50;99.90
32728;DHT22;55292;51.844;19.246;2023-09-30T19:02:10;8.20;99.90
32728;DHT22;55292;51.844;19.246;2023-09-30T19:07:14;8.10;99.90
32728;DHT22;55292;51.844;19.246;2023-09-30T19:12:17;8.00;99.90
32728;DHT22;55292;51.844;19.246;2023-09-30T19:17:20;8.00;99.90
32728;DHT22;55292;51.844;19.246;2023-09-30T19:22:23;7.90;99.90
32728;DHT22;55292;51.844;19.246;2023-09-30T19:27:26;7.90;99.90
32728;DHT22;55292;51.844;19.246;2023-09-30T19:32:28;8.10;99.90
32728;DHT22;55292;51.844;19.246;2023-09-30T19:37:31;8.00;99.90
32728;DHT22;55292;51.844;19.246;2023-09-30T19:42:34;8.00;99.90
32728;DHT22;55292;51.844;19.246;2023-09-30T19:47:38;8.00;99.90
32728;DHT22;55292;51.844;19.246;2023-09-30T19:52:42;7.90;99.90
32728;DHT22;55292;51.844;19.246;2023-09-30T19:57:44;7.90;99.90
32728;DHT22;55292;51.844;19.246;2023-09-30T20:02:47;7.90;99.90
32728;DHT22;55292;51.844;19.246;2023-09-30T20:07:50;7.80;99.90
32728;DHT22;55292;51.844;19.246;2023-09-30T20:12:53;7.70;99.90
32728;DHT22;55292;51.844;19.246;2023-09-30T20:17:56;7.70;99.90
32728;DHT22;55292;51.844;19.246;2023-09-30T20:22:59;7.60;99.90
32728;DHT22;55292;51.844;19.246;2023-09-30T20:28:02;7.50;99.90
32728;DHT22;55292;51.844;19.246;2023-09-30T20:33:08;7.30;99.90
32728;DHT22;55292;51.844;19.246;2023-09-30T20:38:11;7.20;99.90
32728;DHT22;55292;51.844;19.246;2023-09-30T20:43:15;7.10;99.90
32728;DHT22;55292;51.844;19.246;2023-09-30T20:48:18;7.10;99.90
32728;DHT22;55292;51.844;19.246;2023-09-30T20:53:21;7.20;99.90
32728;DHT22;55292;51.844;19.246;2023-09-30T20:58:23;7.10;99.90
32728;DHT22;55292;51.844;19.246;2023-09-30T21:03:29;7.10;99.90
32728;DHT22;55292;51.844;19.246;2023-09-30T21:08:35;7.00;99.90
32728;DHT22;55292;51.844;19.246;2023-09-30T21:13:41;6.90;99.90
32728;DHT22;55292;51.844;19.246;2023-09-30T21:18:44;6.90;99.90
32728;DHT22;55292;51.844;19.246;2023-09-30T21:23:47;6.90;99.90
32728;DHT22;55292;51.844;19.246;2023-09-30T21:28:50;6.80;99.90
32728;DHT22;55292;51.844;19.246;2023-09-30T21:33:53;6.80;99.90
32728;DHT22;55292;51.844;19.246;2023-09-30T21:38:55;6.60;99.90
32728;DHT22;55292;51.844;19.246;2023-09-30T21:43:59;6.60;99.90
32728;DHT22;55292;51.844;19.246;2023-09-30T21:49:01;6.70;99.90
32728;DHT22;55292;51.844;19.246;2023-09-30T21:54:04;6.80;99.90
32728;DHT22;55292;51.844;19.246;2023-09-30T21:59:07;6.60;99.90
32728;DHT22;55292;51.844;19.246;2023-09-30T22:04:10;6.50;99.90
32728;DHT22;55292;51.844;19.246;2023-09-30T22:09:13;6.50;99.90
32728;DHT22;55292;51.844;19.246;2023-09-30T22:14:15;6.40;99.90
32728;DHT22;55292;51.844;19.246;2023-09-30T22:19:18;6.30;99.90
32728;DHT22;55292;51.844;19.246;2023-09-30T22:24:21;6.30;99.90
32728;DHT22;55292;51.844;19.246;2023-09-30T22:29:24;6.30;99.90
32728;DHT22;55292;51.844;19.246;2023-09-30T22:39:30;6.00;99.90
32728;DHT22;55292;51.844;19.246;2023-09-30T22:44:33;6.10;99.90
32728;DHT22;55292;51.844;19.246;2023-09-30T22:49:35;6.10;99.90
32728;DHT22;55292;51.844;19.246;2023-09-30T22:59:42;6.20;99.90
32728;DHT22;55292;51.844;19.246;2023-09-30T23:04:45;6.20;99.90
32728;DHT22;55292;51.844;19.246;2023-09-30T23:09:48;6.20;99.90
32728;DHT22;55292;51.844;19.246;2023-09-30T23:14:51;6.20;99.90
32728;DHT22;55292;51.844;19.246;2023-09-30T23:19:54;6.10;99.90
32728;DHT22;55292;51.844;19.246;2023-09-30T23:24:57;6.20;99.90
32728;DHT22;55292;51.844;19.246;2023-09-30T23:30:00;6.10;99.90
32728;DHT22;55292;51.844;19.246;2023-09-30T23:35:17;6.00;99.90
32728;DHT22;55292;51.844;19.246;2023-09-30T23:40:23;6.10;99.90
32728;DHT22;55292;51.844;19.246;2023-09-30T23:45:26;6.10;99.90
32728;DHT22;55292;51.844;19.246;2023-09-30T23:50:29;6.20;99.90
32728;DHT22;55292;51.844;19.246;2023-09-30T23:55:32;6.10;99.90
